createdAt,value
2022-11-09T00:01:50.104Z,-2.70
2022-11-09T00:06:53.494Z,-2.83
2022-11-09T00:11:56.286Z,-2.81
2022-11-09T00:16:59.407Z,-3.14
2022-11-09T00:22:02.195Z,-3.04
2022-11-09T00:27:04.894Z,-3.37
2022-11-09T00:32:07.721Z,-3.18
2022-11-09T00:37:10.507Z,-3.13
2022-11-09T00:42:14.345Z,-3.13
2022-11-09T00:47:17.011Z,-3.14
2022-11-09T00:52:19.713Z,-3.23
2022-11-09T00:57:22.521Z,-3.27
2022-11-09T01:02:25.420Z,-3.28
2022-11-09T01:07:28.095Z,-3.39
2022-11-09T01:12:30.832Z,-3.37
2022-11-09T01:17:33.728Z,-3.47
2022-11-09T01:22:36.529Z,-3.42
2022-11-09T01:27:39.391Z,-3.47
2022-11-09T01:32:42.111Z,-3.42
2022-11-09T01:37:44.898Z,-3.44
2022-11-09T01:42:47.592Z,-3.34
2022-11-09T01:48:07.599Z,-3.38
2022-11-09T01:53:15.380Z,-3.36
2022-11-09T01:58:22.574Z,-3.28
2022-11-09T02:03:33.738Z,-3.23
2022-11-09T02:08:36.424Z,-3.18
2022-11-09T02:13:42.113Z,-3.16
2022-11-09T02:18:58.587Z,-3.11
2022-11-09T02:24:01.809Z,-3.05
2022-11-09T02:29:08.280Z,-3.04
2022-11-09T02:34:20.208Z,-3.39
2022-11-09T02:39:26.275Z,-3.10
2022-11-09T02:44:31.046Z,-3.11
2022-11-09T02:49:33.894Z,-3.17
2022-11-09T02:54:36.743Z,-3.40
2022-11-09T02:59:40.540Z,-3.36
2022-11-09T03:04:43.278Z,-3.49
2022-11-09T03:09:46.860Z,-3.36
2022-11-09T03:14:49.598Z,-3.33
2022-11-09T03:19:52.858Z,-3.28
2022-11-09T03:24:56.257Z,-3.20
2022-11-09T03:29:59.988Z,-3.21
2022-11-09T03:35:02.871Z,-3.28
2022-11-09T03:40:06.561Z,-3.19
2022-11-09T03:45:09.980Z,-3.21
2022-11-09T03:50:13.952Z,-3.13
2022-11-09T03:55:16.718Z,-3.07
2022-11-09T04:00:21.583Z,-3.07
2022-11-09T04:05:25.759Z,-3.10
2022-11-09T04:10:28.502Z,-3.08
2022-11-09T04:15:31.192Z,-3.10
2022-11-09T04:20:33.978Z,-3.03
2022-11-09T04:25:38.195Z,-2.97
2022-11-09T04:30:43.479Z,-2.81
2022-11-09T04:35:46.243Z,-2.79
2022-11-09T04:40:48.938Z,-2.77
2022-11-09T04:45:51.635Z,-2.86
2022-11-09T04:51:00.060Z,-2.81
2022-11-09T04:56:03.772Z,-2.79
2022-11-09T05:01:09.095Z,-2.91
2022-11-09T05:06:30.253Z,-2.91
2022-11-09T05:11:34.039Z,-2.97
2022-11-09T05:16:36.818Z,-2.98
2022-11-09T05:21:39.820Z,-2.77
2022-11-09T05:26:42.845Z,-2.78
2022-11-09T05:31:51.990Z,-2.73
2022-11-09T05:36:58.184Z,-2.87
2022-11-09T05:42:05.089Z,-2.55
2022-11-09T05:47:07.811Z,-2.41
2022-11-09T05:52:10.505Z,-2.50
2022-11-09T05:57:13.152Z,-2.05
2022-11-09T06:02:15.941Z,-1.81
2022-11-09T06:07:18.698Z,-1.54
2022-11-09T06:12:21.458Z,-1.57
2022-11-09T06:17:24.144Z,-1.66
2022-11-09T06:22:26.792Z,-1.69
2022-11-09T06:27:29.499Z,-1.71
2022-11-09T06:32:32.235Z,-1.57
2022-11-09T06:37:34.994Z,-1.54
2022-11-09T06:42:37.719Z,-1.49
2022-11-09T06:47:40.383Z,-1.65
2022-11-09T06:52:43.132Z,-1.75
2022-11-09T06:57:45.808Z,-1.83
2022-11-09T07:02:48.529Z,-1.89
2022-11-09T07:07:51.357Z,-1.98
2022-11-09T07:12:54.092Z,-1.60
2022-11-09T07:18:01.406Z,-1.67
2022-11-09T07:23:04.146Z,-1.88
2022-11-09T07:28:09.307Z,-1.88
2022-11-09T07:33:18.635Z,-1.95
2022-11-09T07:38:21.288Z,-2.09
2022-11-09T07:43:24.012Z,-2.11
2022-11-09T07:48:28.179Z,-2.08
2022-11-09T07:53:30.974Z,-2.09
2022-11-09T07:58:34.694Z,-1.90
2022-11-09T08:03:37.513Z,-1.79
2022-11-09T08:08:40.121Z,-1.80
2022-11-09T08:13:42.911Z,-1.80
2022-11-09T08:18:45.674Z,-1.78
2022-11-09T08:23:48.496Z,-1.92
2022-11-09T08:28:51.381Z,-1.76
2022-11-09T08:33:54.279Z,-1.89
2022-11-09T08:38:59.521Z,-1.82
2022-11-09T08:44:02.216Z,-1.87
2022-11-09T08:49:04.780Z,-1.97
2022-11-09T08:54:07.487Z,-2.17
2022-11-09T08:59:10.237Z,-2.17
2022-11-09T09:04:13.020Z,-2.31
2022-11-09T09:09:15.816Z,-2.37
2022-11-09T09:14:18.594Z,-2.25
2022-11-09T09:19:21.630Z,-2.29
2022-11-09T09:24:24.381Z,-2.31
2022-11-09T09:29:27.126Z,-2.25
2022-11-09T09:34:29.787Z,-2.28
2022-11-09T09:39:32.476Z,-2.31
2022-11-09T09:44:41.447Z,-2.36
2022-11-09T09:49:51.082Z,-2.31
2022-11-09T09:54:56.579Z,-2.32
2022-11-09T10:00:01.907Z,-2.32
2022-11-09T10:05:16.383Z,-2.34
2022-11-09T10:10:44.747Z,-2.40
2022-11-09T10:16:02.731Z,-2.42
2022-11-09T10:21:24.134Z,-2.46
2022-11-09T10:26:54.200Z,-2.45
2022-11-09T10:32:06.187Z,-2.46
2022-11-09T10:37:29.326Z,-2.50
2022-11-09T10:42:32.061Z,-2.46
2022-11-09T10:47:53.300Z,-2.40
2022-11-09T10:53:18.926Z,-2.42
2022-11-09T10:58:50.116Z,-2.45
2022-11-09T11:04:22.874Z,-2.51
2022-11-09T11:09:44.675Z,-2.51
2022-11-09T11:15:24.058Z,-2.51
2022-11-09T11:20:45.455Z,-2.52
2022-11-09T11:26:23.940Z,-2.53
2022-11-09T11:31:45.285Z,-2.60
2022-11-09T11:37:10.433Z,-2.59
2022-11-09T11:42:56.580Z,-2.61
2022-11-09T11:48:59.284Z,-2.48
2022-11-09T11:54:41.292Z,-2.50
2022-11-09T12:00:15.418Z,-2.48
2022-11-09T12:05:36.315Z,-2.53
2022-11-09T12:11:12.956Z,-2.61
2022-11-09T12:17:00.250Z,-2.61
2022-11-09T12:23:02.607Z,-2.60
2022-11-09T12:28:48.761Z,-2.57
2022-11-09T12:34:15.770Z,-2.56
2022-11-09T12:39:47.325Z,-2.59
2022-11-09T12:45:35.046Z,-2.67
2022-11-09T12:50:56.562Z,-2.59
2022-11-09T12:56:18.916Z,-2.61
2022-11-09T13:01:40.213Z,-2.59
2022-11-09T13:07:04.005Z,-2.57
2022-11-09T13:12:38.315Z,-2.63
2022-11-09T13:18:05.489Z,-2.56
2022-11-09T13:23:59.211Z,-2.60
2022-11-09T13:29:41.971Z,-2.59
2022-11-09T13:35:04.913Z,-2.67
2022-11-09T13:40:32.221Z,-2.68
2022-11-09T13:46:05.390Z,-2.76
2022-11-09T13:51:46.587Z,-2.59
2022-11-09T13:57:07.766Z,-2.58
2022-11-09T14:02:36.679Z,-2.62
2022-11-09T14:08:02.202Z,-2.57
2022-11-09T14:13:23.320Z,-2.57
2022-11-09T14:18:55.074Z,-2.56
2022-11-09T14:24:22.386Z,-2.55
2022-11-09T14:29:58.092Z,-2.69
2022-11-09T14:35:26.933Z,-2.62
2022-11-09T14:40:49.320Z,-2.57
2022-11-09T14:46:19.744Z,-2.53
2022-11-09T14:51:41.153Z,-2.50
2022-11-09T14:57:02.266Z,-2.49
2022-11-09T15:02:24.303Z,-2.45
2022-11-09T15:07:47.460Z,-2.43
2022-11-09T15:13:08.792Z,-2.43
2022-11-09T15:18:34.568Z,-2.42
2022-11-09T15:24:11.309Z,-2.42
2022-11-09T15:29:32.372Z,-2.42
2022-11-09T15:34:56.346Z,-2.69
2022-11-09T15:40:23.257Z,-2.62
2022-11-09T15:45:44.622Z,-2.41
2022-11-09T15:51:05.807Z,-2.40
2022-11-09T15:56:26.856Z,-2.44
2022-11-09T16:01:48.268Z,-2.51
2022-11-09T16:07:11.801Z,-2.55
2022-11-09T16:12:33.273Z,-2.57
2022-11-09T16:17:54.616Z,-2.58
2022-11-09T16:23:15.871Z,-2.56
2022-11-09T16:28:43.659Z,-2.46
2022-11-09T16:34:04.860Z,-2.41
2022-11-09T16:39:26.414Z,-2.44
2022-11-09T16:44:48.740Z,-2.44
2022-11-09T16:50:10.324Z,-2.43
2022-11-09T16:55:31.572Z,-2.34
2022-11-09T17:01:11.335Z,-2.36
2022-11-09T17:06:34.441Z,-2.38
2022-11-09T17:11:56.004Z,-2.40
2022-11-09T17:17:22.480Z,-2.37
2022-11-09T17:22:46.276Z,-2.37
2022-11-09T17:28:07.774Z,-2.32
2022-11-09T17:33:28.988Z,-2.28
2022-11-09T17:38:50.312Z,-2.26
2022-11-09T17:44:11.674Z,-2.26
2022-11-09T17:49:32.985Z,-2.30
2022-11-09T17:54:54.124Z,-2.32
2022-11-09T18:00:15.667Z,-2.43
2022-11-09T18:05:41.175Z,-2.40
2022-11-09T18:11:02.513Z,-2.47
2022-11-09T18:16:23.868Z,-2.49
2022-11-09T18:21:47.832Z,-2.39
2022-11-09T18:27:08.829Z,-2.38
2022-11-09T18:32:30.623Z,-2.34
2022-11-09T18:37:51.617Z,-2.36
2022-11-09T18:43:12.809Z,-2.35
2022-11-09T18:48:34.455Z,-2.29
2022-11-09T18:53:55.668Z,-2.31
2022-11-09T18:59:17.275Z,-2.31
2022-11-09T19:04:38.698Z,-2.30
2022-11-09T19:09:59.803Z,-2.28
2022-11-09T19:15:20.811Z,-2.32
2022-11-09T19:20:41.981Z,-2.31
2022-11-09T19:26:03.407Z,-2.36
2022-11-09T19:31:25.158Z,-2.35
2022-11-09T19:36:46.534Z,-2.43
2022-11-09T19:42:07.622Z,-2.38
2022-11-09T19:47:28.699Z,-2.38
2022-11-09T19:52:49.861Z,-2.27
2022-11-09T19:58:11.695Z,-2.30
2022-11-09T20:03:32.832Z,-2.29
2022-11-09T20:08:54.231Z,-2.21
2022-11-09T20:14:15.683Z,-2.19
2022-11-09T20:19:37.234Z,-2.19
2022-11-09T20:24:58.277Z,-2.23
2022-11-09T20:30:20.041Z,-2.32
2022-11-09T20:35:46.600Z,-2.54
2022-11-09T20:41:11.049Z,-2.35
2022-11-09T20:46:36.233Z,-2.35
2022-11-09T20:51:59.414Z,-2.32
2022-11-09T20:57:20.499Z,-2.36
2022-11-09T21:02:43.524Z,-2.39
2022-11-09T21:08:04.706Z,-2.36
2022-11-09T21:13:26.044Z,-2.37
2022-11-09T21:18:47.285Z,-2.35
2022-11-09T21:24:28.376Z,-2.35
2022-11-09T21:29:52.370Z,-2.36
2022-11-09T21:35:13.490Z,-2.37
2022-11-09T21:40:34.516Z,-2.38
2022-11-09T21:45:56.388Z,-2.38
2022-11-09T21:51:17.618Z,-2.36
2022-11-09T21:56:38.816Z,-2.37
2022-11-09T22:01:59.709Z,-2.34
2022-11-09T22:07:20.939Z,-2.25
2022-11-09T22:13:00.548Z,-2.27
2022-11-09T22:18:40.345Z,-2.25
2022-11-09T22:24:02.148Z,-2.34
2022-11-09T22:29:23.135Z,-2.31
2022-11-09T22:34:45.131Z,-2.36
2022-11-09T22:40:06.897Z,-2.38
2022-11-09T22:45:27.830Z,-2.46
2022-11-09T22:50:49.275Z,-2.51
2022-11-09T22:56:11.734Z,-2.49
2022-11-09T23:01:32.978Z,-2.52
2022-11-09T23:06:54.460Z,-2.59
2022-11-09T23:12:16.037Z,-2.55
2022-11-09T23:17:55.381Z,-2.56
2022-11-09T23:23:16.571Z,-2.53
2022-11-09T23:28:37.908Z,-2.60
2022-11-09T23:33:59.141Z,-2.55
2022-11-09T23:39:20.313Z,-2.52
2022-11-09T23:44:41.667Z,-2.49
2022-11-09T23:50:02.590Z,-2.51
2022-11-09T23:55:23.623Z,-2.60
